createdAt,value
2018-04-07T00:02:01.353Z,11.52
2018-04-07T00:04:27.763Z,12.52
2018-04-07T00:06:54.263Z,10.27
2018-04-07T00:09:20.625Z,11.38
2018-04-07T00:11:47.065Z,11.88
2018-04-07T00:14:13.541Z,10.82
2018-04-07T00:16:40.007Z,11.48
2018-04-07T00:19:06.484Z,11.00
2018-04-07T00:21:32.920Z,10.73
2018-04-07T00:23:59.252Z,10.93
2018-04-07T00:26:25.697Z,11.35
2018-04-07T00:28:52.247Z,11.12
2018-04-07T00:31:18.661Z,11.63
2018-04-07T00:33:45.076Z,10.68
2018-04-07T00:36:11.570Z,10.27
2018-04-07T00:38:38.001Z,10.63
2018-04-07T00:41:04.424Z,9.55
2018-04-07T00:43:30.930Z,10.70
2018-04-07T00:45:57.327Z,9.88
2018-04-07T00:48:23.757Z,9.52
2018-04-07T00:50:50.225Z,10.13
2018-04-07T00:53:16.749Z,10.68
2018-04-07T00:55:43.110Z,10.02
2018-04-07T00:58:09.647Z,10.07
2018-04-07T01:00:36.106Z,9.40
2018-04-07T01:03:02.590Z,8.52
2018-04-07T01:05:29.013Z,7.70
2018-04-07T01:07:55.446Z,8.55
2018-04-07T01:10:21.857Z,9.50
2018-04-07T01:12:48.437Z,8.70
2018-04-07T01:15:14.925Z,8.55
2018-04-07T01:17:41.351Z,8.93
2018-04-07T01:20:07.766Z,9.38
2018-04-07T01:22:34.177Z,8.38
2018-04-07T01:25:00.577Z,7.70
2018-04-07T01:27:27.111Z,7.78
2018-04-07T01:29:53.510Z,8.48
2018-04-07T01:32:19.876Z,9.45
2018-04-07T01:34:46.371Z,9.40
2018-04-07T01:37:12.726Z,8.45
2018-04-07T01:39:39.240Z,7.18
2018-04-07T01:42:05.706Z,8.35
2018-04-07T01:44:32.141Z,8.88
2018-04-07T01:46:58.525Z,7.43
2018-04-07T01:49:25.019Z,9.05
2018-04-07T01:51:51.521Z,8.90
2018-04-07T01:54:17.995Z,8.13
2018-04-07T01:56:44.394Z,8.65
2018-04-07T01:59:10.760Z,8.20
2018-04-07T02:01:37.246Z,6.87
2018-04-07T02:04:03.702Z,7.78
2018-04-07T02:06:30.183Z,7.07
2018-04-07T02:08:56.612Z,8.25
2018-04-07T02:11:23.078Z,7.72
2018-04-07T02:13:49.563Z,7.62
2018-04-07T02:16:16.128Z,8.25
2018-04-07T02:18:42.490Z,8.45
2018-04-07T02:21:08.902Z,7.37
2018-04-07T02:23:35.363Z,7.95
2018-04-07T02:26:01.733Z,7.87
2018-04-07T02:28:28.281Z,8.02
2018-04-07T02:30:54.674Z,7.93
2018-04-07T02:33:21.294Z,7.07
2018-04-07T02:35:47.774Z,7.90
2018-04-07T02:38:14.346Z,7.75
2018-04-07T02:40:40.784Z,7.82
2018-04-07T02:43:07.297Z,7.45
2018-04-07T02:45:33.755Z,7.72
2018-04-07T02:48:00.139Z,7.90
2018-04-07T02:50:26.588Z,8.00
2018-04-07T02:52:53.089Z,8.02
2018-04-07T02:55:19.592Z,8.27
2018-04-07T02:57:46.108Z,8.18
2018-04-07T03:00:12.664Z,7.62
2018-04-07T03:02:39.114Z,8.07
2018-04-07T03:05:05.661Z,7.62
2018-04-07T03:07:32.033Z,7.37
2018-04-07T03:09:58.460Z,7.97
2018-04-07T03:12:24.860Z,7.87
2018-04-07T03:14:51.286Z,7.78
2018-04-07T03:17:17.729Z,7.40
2018-04-07T03:19:44.290Z,7.57
2018-04-07T03:22:10.754Z,7.05
2018-04-07T03:24:37.206Z,7.37
2018-04-07T03:27:03.642Z,7.82
2018-04-07T03:29:30.190Z,8.57
2018-04-07T03:31:56.602Z,7.12
2018-04-07T03:34:23.005Z,7.90
2018-04-07T03:36:49.441Z,7.97
2018-04-07T03:39:15.886Z,7.22
2018-04-07T03:41:42.356Z,7.32
2018-04-07T03:44:08.758Z,7.82
2018-04-07T03:46:35.182Z,6.57
2018-04-07T03:49:01.658Z,7.03
2018-04-07T03:51:28.067Z,9.50
2018-04-07T03:53:54.527Z,7.80
2018-04-07T03:56:21.022Z,7.72
2018-04-07T03:58:47.482Z,7.60
2018-04-07T04:01:13.872Z,7.45
2018-04-07T04:03:40.266Z,7.00
2018-04-07T04:06:06.747Z,8.80
2018-04-07T04:08:33.142Z,7.50
2018-04-07T04:10:59.554Z,6.80
2018-04-07T04:13:25.989Z,7.25
2018-04-07T04:15:52.452Z,6.95
2018-04-07T04:18:18.930Z,7.20
2018-04-07T04:20:45.465Z,6.93
2018-04-07T04:23:11.984Z,8.30
2018-04-07T04:25:38.432Z,7.95
2018-04-07T04:28:04.936Z,8.68
2018-04-07T04:30:31.361Z,8.52
2018-04-07T04:32:58.487Z,8.25
2018-04-07T04:35:24.909Z,8.30
2018-04-07T04:37:51.367Z,7.37
2018-04-07T04:40:17.974Z,8.10
2018-04-07T04:42:44.502Z,8.00
2018-04-07T04:45:10.946Z,8.10
2018-04-07T04:47:37.486Z,8.07
2018-04-07T04:50:03.938Z,8.73
2018-04-07T04:52:30.529Z,7.80
2018-04-07T04:54:56.919Z,7.72
2018-04-07T04:57:23.336Z,7.80
2018-04-07T04:59:49.992Z,7.35
2018-04-07T05:02:16.493Z,9.40
2018-04-07T05:04:42.985Z,7.90
2018-04-07T05:07:09.462Z,8.27
2018-04-07T05:09:35.920Z,8.27
2018-04-07T05:12:02.355Z,8.68
2018-04-07T05:14:28.794Z,8.38
2018-04-07T05:16:55.294Z,8.27
2018-04-07T05:19:21.707Z,8.13
2018-04-07T05:21:48.116Z,6.65
2018-04-07T05:24:14.523Z,7.95
2018-04-07T05:26:40.961Z,8.45
2018-04-07T05:29:07.401Z,8.45
2018-04-07T05:31:33.954Z,8.88
2018-04-07T05:34:00.389Z,8.98
2018-04-07T05:36:26.846Z,9.05
2018-04-07T05:38:53.262Z,8.00
2018-04-07T05:41:19.675Z,8.48
2018-04-07T05:43:46.157Z,9.98
2018-04-07T05:46:12.597Z,8.93
2018-04-07T05:48:39.050Z,8.25
2018-04-07T05:51:07.110Z,7.07
2018-04-07T05:53:34.695Z,8.20
2018-04-07T05:56:02.317Z,7.35
2018-04-07T05:58:28.945Z,8.43
2018-04-07T06:00:55.552Z,7.80
2018-04-07T06:03:22.139Z,7.18
2018-04-07T06:05:48.609Z,7.47
2018-04-07T06:08:15.062Z,7.30
2018-04-07T06:10:41.578Z,7.85
2018-04-07T06:13:08.043Z,7.43
2018-04-07T06:15:34.491Z,7.40
2018-04-07T06:18:00.901Z,7.72
2018-04-07T06:20:27.302Z,7.40
2018-04-07T06:22:53.760Z,7.00
2018-04-07T06:25:20.137Z,6.50
2018-04-07T06:27:46.500Z,7.47
2018-04-07T06:30:12.924Z,7.90
2018-04-07T06:32:39.408Z,8.00
2018-04-07T06:35:05.886Z,12.25
2018-04-07T06:37:32.325Z,9.45
2018-04-07T06:39:58.722Z,7.55
2018-04-07T06:42:25.126Z,7.35
2018-04-07T06:44:51.586Z,7.25
2018-04-07T06:47:18.031Z,7.95
2018-04-07T06:49:44.473Z,7.47
2018-04-07T06:52:10.958Z,6.70
2018-04-07T06:54:37.449Z,7.22
2018-04-07T06:57:03.952Z,7.07
2018-04-07T06:59:30.329Z,7.40
2018-04-07T07:01:56.826Z,7.70
2018-04-07T07:04:23.309Z,8.85
2018-04-07T07:06:49.805Z,7.30
2018-04-07T07:09:16.293Z,8.93
2018-04-07T07:11:42.790Z,7.10
2018-04-07T07:14:09.304Z,7.68
2018-04-07T07:16:35.738Z,7.43
2018-04-07T07:19:02.233Z,6.07
2018-04-07T07:21:28.768Z,5.25
2018-04-07T07:23:55.283Z,6.97
2018-04-07T07:26:21.843Z,5.62
2018-04-07T07:28:48.347Z,6.80
2018-04-07T07:31:14.850Z,6.60
2018-04-07T07:33:41.337Z,6.78
2018-04-07T07:36:07.786Z,6.18
2018-04-07T07:38:34.329Z,6.30
2018-04-07T07:41:00.846Z,6.65
2018-04-07T07:43:27.368Z,6.90
2018-04-07T07:45:53.806Z,6.78
2018-04-07T07:48:20.254Z,6.03
2018-04-07T07:50:46.722Z,6.47
2018-04-07T07:53:13.301Z,6.47
2018-04-07T07:55:39.762Z,7.30
2018-04-07T07:58:06.227Z,6.05
2018-04-07T08:00:32.653Z,6.62
2018-04-07T08:02:59.086Z,6.68
2018-04-07T08:05:25.590Z,6.53
2018-04-07T08:07:52.061Z,6.75
2018-04-07T08:10:18.490Z,6.45
2018-04-07T08:12:45.191Z,6.53
2018-04-07T08:15:11.715Z,6.25
2018-04-07T08:17:38.178Z,6.57
2018-04-07T08:20:04.614Z,6.15
2018-04-07T08:22:31.090Z,6.10
2018-04-07T08:24:57.550Z,6.27
2018-04-07T08:27:24.876Z,6.80
2018-04-07T08:29:51.555Z,7.05
2018-04-07T08:32:18.290Z,6.57
2018-04-07T08:34:44.854Z,7.07
2018-04-07T08:37:14.829Z,6.68
2018-04-07T08:39:37.953Z,7.10
2018-04-07T08:42:04.568Z,7.18
2018-04-07T08:44:31.043Z,6.93
2018-04-07T08:46:57.547Z,8.50
2018-04-07T08:49:24.082Z,7.62
2018-04-07T08:51:50.610Z,7.10
2018-04-07T08:54:17.128Z,7.30
2018-04-07T08:56:43.763Z,7.57
2018-04-07T08:59:10.165Z,7.37
2018-04-07T09:01:36.746Z,7.68
2018-04-07T09:04:03.239Z,7.55
2018-04-07T09:06:29.697Z,6.62
2018-04-07T09:08:56.126Z,6.43
2018-04-07T09:11:22.629Z,6.97
2018-04-07T09:13:49.109Z,6.37
2018-04-07T09:16:15.328Z,7.15
2018-04-07T09:18:41.886Z,6.40
2018-04-07T09:21:08.411Z,9.38
2018-04-07T09:23:35.088Z,7.70
2018-04-07T09:26:01.489Z,7.75
2018-04-07T09:28:28.098Z,7.20
2018-04-07T09:31:00.576Z,8.02
2018-04-07T09:33:27.005Z,7.35
2018-04-07T09:35:53.377Z,7.00
2018-04-07T09:38:19.833Z,6.80
2018-04-07T09:40:46.243Z,7.00
2018-04-07T09:43:12.668Z,6.95
2018-04-07T09:45:39.041Z,6.18
2018-04-07T09:48:05.628Z,6.47
2018-04-07T09:50:32.106Z,5.97
2018-04-07T09:52:58.574Z,6.80
2018-04-07T09:55:25.011Z,6.53
2018-04-07T09:57:51.493Z,6.45
2018-04-07T10:00:18.129Z,5.68
2018-04-07T10:02:44.638Z,6.20
2018-04-07T10:05:11.117Z,5.95
2018-04-07T10:07:38.366Z,5.85
2018-04-07T10:10:04.918Z,6.82
2018-04-07T10:12:31.388Z,7.05
2018-04-07T10:14:57.967Z,5.90
2018-04-07T10:17:24.494Z,6.35
2018-04-07T10:19:50.974Z,5.70
2018-04-07T10:22:17.492Z,6.50
2018-04-07T10:24:44.021Z,6.47
2018-04-07T10:27:10.630Z,5.97
2018-04-07T10:29:37.456Z,5.82
2018-04-07T10:32:03.931Z,5.93
2018-04-07T10:34:30.418Z,6.15
2018-04-07T10:36:56.873Z,6.22
2018-04-07T10:39:23.468Z,6.80
2018-04-07T10:41:50.069Z,6.50
2018-04-07T10:44:16.662Z,6.72
2018-04-07T10:46:43.129Z,6.25
2018-04-07T10:49:09.497Z,6.10
2018-04-07T10:51:35.954Z,5.35
2018-04-07T10:54:02.390Z,5.37
2018-04-07T10:56:28.915Z,5.60
2018-04-07T10:58:55.851Z,5.70
2018-04-07T11:01:22.323Z,5.53
2018-04-07T11:03:48.753Z,5.53
2018-04-07T11:06:15.373Z,5.07
2018-04-07T11:08:41.752Z,5.20
2018-04-07T11:11:08.356Z,4.83
2018-04-07T11:13:34.822Z,4.67
2018-04-07T11:16:01.338Z,4.70
2018-04-07T11:18:27.921Z,5.10
2018-04-07T11:20:54.389Z,4.87
2018-04-07T11:23:20.879Z,5.13
2018-04-07T11:25:47.445Z,4.90
2018-04-07T11:28:13.969Z,4.73
2018-04-07T11:30:40.483Z,4.57
2018-04-07T11:33:06.922Z,4.87
2018-04-07T11:35:33.453Z,4.47
2018-04-07T11:38:00.905Z,5.93
2018-04-07T11:40:27.329Z,5.40
2018-04-07T11:42:53.791Z,4.37
2018-04-07T11:45:20.350Z,4.60
2018-04-07T11:47:46.805Z,5.00
2018-04-07T11:50:13.590Z,4.00
2018-04-07T11:52:40.873Z,4.47
2018-04-07T11:55:07.370Z,4.30
2018-04-07T11:57:33.824Z,4.70
2018-04-07T12:00:00.322Z,5.30
2018-04-07T12:02:28.075Z,5.27
2018-04-07T12:04:54.864Z,4.77
2018-04-07T12:07:21.386Z,4.20
2018-04-07T12:09:47.854Z,3.80
2018-04-07T12:12:14.338Z,3.67
2018-04-07T12:14:40.853Z,4.03
2018-04-07T12:17:07.292Z,4.37
2018-04-07T12:19:33.798Z,4.10
2018-04-07T12:22:00.278Z,4.80
2018-04-07T12:24:27.468Z,4.90
2018-04-07T12:26:54.302Z,4.07
2018-04-07T12:29:20.937Z,4.23
2018-04-07T12:31:47.518Z,4.20
2018-04-07T12:34:14.253Z,4.47
2018-04-07T12:36:40.741Z,4.40
2018-04-07T12:39:07.204Z,4.50
2018-04-07T12:41:33.885Z,4.10
2018-04-07T12:44:00.446Z,4.00
2018-04-07T12:46:27.026Z,4.40
2018-04-07T12:48:53.445Z,3.60
2018-04-07T12:51:19.917Z,3.80
2018-04-07T12:53:46.380Z,3.73
2018-04-07T12:56:12.904Z,4.20
2018-04-07T12:58:39.381Z,3.73
2018-04-07T13:01:05.881Z,4.20
2018-04-07T13:03:32.441Z,4.50
2018-04-07T13:05:58.920Z,3.37
2018-04-07T13:08:25.516Z,3.53
2018-04-07T13:10:52.193Z,3.87
2018-04-07T13:13:19.906Z,3.83
2018-04-07T13:15:46.493Z,4.53
2018-04-07T13:18:12.975Z,4.10
2018-04-07T13:20:39.402Z,3.87
2018-04-07T13:23:05.898Z,3.80
2018-04-07T13:25:32.402Z,3.40
2018-04-07T13:27:58.860Z,3.30
2018-04-07T13:30:25.424Z,3.77
2018-04-07T13:32:51.840Z,3.87
2018-04-07T13:35:18.355Z,3.67
2018-04-07T13:37:44.926Z,3.60
2018-04-07T13:40:11.425Z,3.57
2018-04-07T13:42:38.058Z,3.30
2018-04-07T13:45:04.567Z,3.03
2018-04-07T13:47:31.070Z,3.40
2018-04-07T13:49:57.576Z,3.67
2018-04-07T13:52:24.207Z,5.40
2018-04-07T13:54:50.691Z,14.07
2018-04-07T13:57:17.247Z,4.10
2018-04-07T13:59:43.707Z,4.80
2018-04-07T14:02:10.085Z,11.13
2018-04-07T14:07:03.618Z,4.83
2018-04-07T14:09:30.107Z,4.60
2018-04-07T14:11:56.496Z,5.07
2018-04-07T14:14:22.944Z,4.10
2018-04-07T14:16:49.433Z,3.50
2018-04-07T14:19:15.968Z,4.00
2018-04-07T14:21:42.426Z,4.13
2018-04-07T14:24:08.813Z,5.53
2018-04-07T14:26:35.205Z,5.70
2018-04-07T14:29:01.689Z,4.60
2018-04-07T14:31:28.326Z,5.50
2018-04-07T14:33:54.916Z,3.60
2018-04-07T14:36:21.402Z,3.63
2018-04-07T14:38:48.003Z,7.30
2018-04-07T14:41:14.395Z,26.73
2018-04-07T14:43:40.895Z,9.37
2018-04-07T14:46:07.415Z,5.07
2018-04-07T14:48:33.919Z,10.60
2018-04-07T14:51:00.365Z,13.27
2018-04-07T14:53:26.857Z,6.03
2018-04-07T14:55:53.355Z,3.90
2018-04-07T14:58:19.804Z,11.03
2018-04-07T15:00:46.228Z,6.70
2018-04-07T15:03:12.770Z,4.03
2018-04-07T15:05:39.233Z,3.87
2018-04-07T15:08:05.696Z,3.47
2018-04-07T15:10:32.073Z,3.93
2018-04-07T15:12:58.609Z,4.23
2018-04-07T15:15:24.969Z,3.67
2018-04-07T15:17:51.438Z,3.33
2018-04-07T15:20:17.856Z,4.37
2018-04-07T15:22:44.352Z,3.60
2018-04-07T15:25:10.774Z,3.90
2018-04-07T15:27:37.213Z,4.03
2018-04-07T15:30:03.712Z,3.93
2018-04-07T15:32:30.172Z,3.77
2018-04-07T15:34:56.654Z,3.80
2018-04-07T15:37:23.180Z,4.00
2018-04-07T15:39:49.733Z,4.57
2018-04-07T15:42:16.117Z,3.93
2018-04-07T15:44:42.635Z,3.57
2018-04-07T15:47:09.227Z,3.73
2018-04-07T15:49:35.605Z,4.13
2018-04-07T15:52:02.016Z,3.77
2018-04-07T15:54:28.502Z,4.47
2018-04-07T15:56:54.982Z,3.97
2018-04-07T15:59:21.511Z,4.10
2018-04-07T16:01:47.937Z,4.10
2018-04-07T16:04:14.474Z,4.13
2018-04-07T16:06:40.988Z,4.07
2018-04-07T16:09:07.414Z,4.00
2018-04-07T16:11:34.034Z,4.23
2018-04-07T16:14:00.450Z,4.60
2018-04-07T16:16:27.085Z,4.90
2018-04-07T16:18:53.574Z,4.37
2018-04-07T16:21:20.008Z,4.17
2018-04-07T16:23:46.479Z,4.67
2018-04-07T16:26:12.933Z,4.43
2018-04-07T16:28:39.438Z,6.70
2018-04-07T16:31:05.893Z,5.10
2018-04-07T16:33:32.418Z,4.03
2018-04-07T16:35:58.971Z,5.07
2018-04-07T16:38:25.460Z,5.20
2018-04-07T16:40:51.901Z,5.03
2018-04-07T16:43:18.317Z,4.83
2018-04-07T16:45:44.934Z,4.60
2018-04-07T16:48:11.344Z,5.23
2018-04-07T16:50:37.862Z,5.10
2018-04-07T16:53:04.334Z,4.40
2018-04-07T16:55:30.756Z,4.37
2018-04-07T16:57:57.600Z,4.77
2018-04-07T17:00:24.038Z,4.80
2018-04-07T17:02:50.659Z,4.93
2018-04-07T17:05:17.327Z,5.13
2018-04-07T17:07:43.872Z,5.17
2018-04-07T17:10:10.378Z,4.90
2018-04-07T17:12:36.812Z,5.33
2018-04-07T17:15:03.428Z,4.60
2018-04-07T17:17:29.909Z,4.70
2018-04-07T17:19:56.365Z,11.43
2018-04-07T17:22:22.876Z,4.80
2018-04-07T17:24:49.370Z,4.50
2018-04-07T17:27:16.045Z,3.73
2018-04-07T17:29:49.286Z,6.73
2018-04-07T17:32:17.863Z,4.10
2018-04-07T17:34:45.279Z,3.70
2018-04-07T17:37:13.890Z,4.03
2018-04-07T17:39:40.434Z,4.62
2018-04-07T17:42:07.343Z,4.10
2018-04-07T17:44:33.875Z,4.70
2018-04-07T17:47:07.606Z,4.97
2018-04-07T17:49:43.607Z,5.03
2018-04-07T17:52:00.689Z,5.68
2018-04-07T17:54:27.130Z,5.78
2018-04-07T17:56:53.609Z,7.35
2018-04-07T17:59:20.647Z,6.57
2018-04-07T18:01:47.281Z,6.28
2018-04-07T18:04:13.742Z,6.50
2018-04-07T18:06:40.761Z,6.68
2018-04-07T18:09:07.450Z,7.68
2018-04-07T18:11:33.925Z,7.75
2018-04-07T18:14:00.272Z,7.47
2018-04-07T18:16:26.694Z,6.70
2018-04-07T18:18:53.144Z,7.10
2018-04-07T18:21:19.569Z,8.57
2018-04-07T18:23:46.097Z,8.57
2018-04-07T18:26:13.149Z,8.67
2018-04-07T18:28:39.663Z,7.90
2018-04-07T18:31:06.069Z,8.55
2018-04-07T18:33:32.575Z,8.52
2018-04-07T18:35:58.977Z,7.20
2018-04-07T18:38:25.369Z,8.50
2018-04-07T18:40:51.950Z,7.17
2018-04-07T18:43:18.396Z,7.93
2018-04-07T18:45:44.839Z,8.23
2018-04-07T18:48:11.340Z,8.67
2018-04-07T18:50:37.790Z,7.27
2018-04-07T18:53:04.294Z,7.80
2018-04-07T18:55:30.775Z,11.87
2018-04-07T18:57:57.256Z,8.87
2018-04-07T19:00:23.766Z,12.77
2018-04-07T19:02:50.266Z,12.23
2018-04-07T19:05:16.860Z,10.83
2018-04-07T19:07:43.293Z,10.52
2018-04-07T19:10:09.710Z,9.87
2018-04-07T19:12:36.105Z,15.00
2018-04-07T19:15:02.566Z,18.73
2018-04-07T19:17:29.150Z,20.73
2018-04-07T19:19:55.563Z,15.00
2018-04-07T19:22:22.092Z,14.60
2018-04-07T19:24:48.656Z,14.13
2018-04-07T19:27:15.198Z,14.60
2018-04-07T19:29:41.612Z,12.25
2018-04-07T19:32:08.027Z,24.33
2018-04-07T19:34:34.390Z,19.67
2018-04-07T19:37:00.820Z,13.47
2018-04-07T19:39:27.252Z,16.15
2018-04-07T19:41:53.814Z,12.32
2018-04-07T19:44:20.242Z,9.30
2018-04-07T19:46:46.649Z,11.63
2018-04-07T19:49:13.060Z,12.98
2018-04-07T19:51:39.475Z,9.63
2018-04-07T19:54:05.956Z,10.40
2018-04-07T19:56:32.526Z,11.77
2018-04-07T19:58:58.938Z,16.93
2018-04-07T20:01:25.417Z,17.23
2018-04-07T20:03:51.783Z,30.07
2018-04-07T20:06:18.302Z,18.37
2018-04-07T20:08:44.758Z,17.52
2018-04-07T20:11:11.177Z,15.60
2018-04-07T20:13:37.599Z,14.52
2018-04-07T20:16:04.005Z,13.60
2018-04-07T20:18:30.488Z,12.60
2018-04-07T20:20:57.050Z,10.38
2018-04-07T20:23:23.492Z,11.10
2018-04-07T20:25:49.869Z,11.25
2018-04-07T20:28:16.314Z,11.75
2018-04-07T20:30:42.734Z,12.63
2018-04-07T20:33:09.207Z,12.40
2018-04-07T20:35:35.663Z,14.55
2018-04-07T20:38:02.135Z,16.52
2018-04-07T20:40:28.611Z,16.27
2018-04-07T20:42:54.965Z,14.75
2018-04-07T20:45:21.634Z,14.45
2018-04-07T20:47:48.206Z,15.30
2018-04-07T20:50:14.610Z,16.60
2018-04-07T20:52:41.060Z,16.50
2018-04-07T20:55:07.489Z,16.52
2018-04-07T20:57:33.982Z,16.83
2018-04-07T21:00:00.378Z,17.83
2018-04-07T21:02:26.917Z,17.27
2018-04-07T21:04:53.408Z,16.75
2018-04-07T21:07:19.846Z,15.73
2018-04-07T21:09:46.362Z,16.00
2018-04-07T21:12:12.840Z,14.80
2018-04-07T21:14:39.236Z,15.38
2018-04-07T21:17:05.662Z,15.52
2018-04-07T21:19:32.097Z,14.43
2018-04-07T21:21:58.620Z,13.90
2018-04-07T21:24:25.009Z,13.93
2018-04-07T21:26:51.400Z,15.00
2018-04-07T21:29:17.778Z,12.93
2018-04-07T21:31:44.189Z,13.30
2018-04-07T21:34:10.598Z,12.80
2018-04-07T21:36:37.085Z,12.57
2018-04-07T21:39:03.664Z,12.13
2018-04-07T21:41:30.150Z,13.00
2018-04-07T21:43:56.609Z,11.45
2018-04-07T21:46:23.062Z,12.35
2018-04-07T21:48:49.595Z,12.00
2018-04-07T21:51:16.051Z,12.48
2018-04-07T21:53:42.466Z,12.40
2018-04-07T21:56:08.831Z,13.75
2018-04-07T21:58:35.358Z,11.80
2018-04-07T22:01:01.849Z,12.18
2018-04-07T22:03:28.338Z,12.05
2018-04-07T22:05:54.730Z,12.37
2018-04-07T22:08:21.174Z,13.20
2018-04-07T22:10:47.692Z,12.05
2018-04-07T22:13:14.202Z,12.30
2018-04-07T22:15:40.598Z,12.05
2018-04-07T22:18:07.018Z,12.65
2018-04-07T22:20:33.467Z,12.40
2018-04-07T22:22:59.892Z,11.68
2018-04-07T22:25:26.420Z,10.20
2018-04-07T22:27:52.920Z,9.73
2018-04-07T22:30:19.458Z,10.00
2018-04-07T22:32:46.047Z,10.20
2018-04-07T22:35:12.578Z,10.43
2018-04-07T22:37:39.007Z,9.90
2018-04-07T22:40:05.443Z,9.90
2018-04-07T22:42:31.879Z,11.07
2018-04-07T22:44:58.349Z,10.27
2018-04-07T22:47:24.772Z,16.87
2018-04-07T22:49:51.208Z,11.38
2018-04-07T22:52:17.667Z,10.52
2018-04-07T22:54:44.153Z,10.15
2018-04-07T22:57:10.627Z,10.00
2018-04-07T22:59:37.044Z,10.98
2018-04-07T23:02:03.607Z,10.15
2018-04-07T23:04:37.003Z,10.77
2018-04-07T23:07:03.448Z,11.00
2018-04-07T23:09:36.739Z,11.68
2018-04-07T23:12:03.155Z,11.98
2018-04-07T23:14:29.738Z,11.52
2018-04-07T23:16:56.105Z,9.63
2018-04-07T23:19:22.593Z,10.85
2018-04-07T23:21:48.974Z,10.90
2018-04-07T23:24:15.486Z,11.05
2018-04-07T23:26:41.953Z,11.23
2018-04-07T23:29:08.377Z,10.00
2018-04-07T23:31:34.860Z,10.07
2018-04-07T23:34:01.305Z,10.27
2018-04-07T23:36:27.785Z,9.88
2018-04-07T23:38:54.324Z,9.40
2018-04-07T23:41:20.706Z,9.65
2018-04-07T23:43:47.205Z,9.38
2018-04-07T23:46:13.557Z,9.52
2018-04-07T23:48:39.987Z,9.68
2018-04-07T23:51:06.449Z,9.15
2018-04-07T23:53:32.846Z,8.73
2018-04-07T23:55:59.200Z,10.23
2018-04-07T23:58:25.669Z,8.65
